Time;durP1;ratioP1;P1;durP2;ratioP2;P2;SDS_P1;SDS_P2;PMS_P1;PMS_P2;Temp;Humidity;BMP_temperature;BMP_pressure;BME280_temperature;BME280_humidity;BME280_pressure;Samples;Min_cycle;Max_cycle;Signal;HPM_P1;HPM_P2
2023/06/19 00:02:59;;;;;;;19.40;17.40;;;;;;;14.73;78.55;98703.96;225994;1260;22562;-67
2023/06/19 00:08:10;;;;;;;19.60;17.60;;;;;;;14.70;78.31;98691.70;225772;1280;22596;-70
2023/06/19 00:13:12;;;;;;;19.90;17.80;;;;;;;14.68;78.49;98693.62;225931;1279;22540;-70
2023/06/19 00:18:16;;;;;;;19.00;16.90;;;;;;;14.67;78.79;98693.48;225814;1276;22588;-68
2023/06/19 00:23:18;;;;;;;21.20;17.70;;;;;;;14.65;78.72;98696.05;225883;1276;22536;-68
2023/06/19 00:28:21;;;;;;;19.10;17.10;;;;;;;14.63;78.95;98700.45;226001;1274;22551;-69
2023/06/19 00:33:23;;;;;;;23.30;19.00;;;;;;;14.60;79.18;98698.34;225896;1273;22631;-68
2023/06/19 00:38:27;;;;;;;19.80;17.80;;;;;;;14.57;78.98;98701.49;225898;1264;22538;-68
2023/06/19 00:43:29;;;;;;;20.40;18.20;;;;;;;14.53;79.16;98700.98;225852;1280;22536;-68
2023/06/19 00:48:36;;;;;;;17.90;15.80;;;;;;;14.49;79.25;98704.23;225649;1271;22552;-68
2023/06/19 00:53:59;;;;;;;21.10;18.60;;;;;;;14.43;79.31;98701.64;225839;1280;22536;-70
2023/06/19 00:59:06;;;;;;;22.70;20.30;;;;;;;14.38;79.16;98696.42;225626;1271;22539;-68
2023/06/19 01:04:08;;;;;;;22.30;19.90;;;;;;;14.34;79.29;98700.48;225792;1278;22590;-69
2023/06/19 01:09:16;;;;;;;20.90;18.80;;;;;;;14.30;79.45;98698.58;225915;1273;22545;-68
2023/06/19 01:14:25;;;;;;;20.30;18.10;;;;;;;14.23;79.46;98694.77;225813;1277;22536;-69
2023/06/19 01:19:28;;;;;;;19.40;17.10;;;;;;;14.14;79.33;98693.65;225797;1262;22581;-68
2023/06/19 01:24:30;;;;;;;17.80;16.00;;;;;;;14.01;79.48;98694.45;225811;1280;22561;-68
2023/06/19 01:29:35;;;;;;;18.10;16.30;;;;;;;13.90;79.51;98685.68;225972;1280;22688;-68
2023/06/19 01:34:40;;;;;;;18.70;15.80;;;;;;;13.78;79.79;98685.69;225788;1280;22604;-68
2023/06/19 01:39:56;;;;;;;19.70;17.80;;;;;;;13.68;80.07;98691.96;225607;1279;24292;-69
2023/06/19 01:45:03;;;;;;;17.60;15.70;;;;;;;13.61;80.44;98699.92;225994;1280;22579;-68
2023/06/19 01:50:05;;;;;;;21.20;17.30;;;;;;;13.55;80.54;98703.77;225870;1279;22524;-69
2023/06/19 01:55:09;;;;;;;20.60;18.40;;;;;;;13.49;80.56;98707.45;225778;1278;22545;-70
2023/06/19 02:00:14;;;;;;;20.10;17.70;;;;;;;13.44;80.77;98705.37;225935;1273;22554;-68
2023/06/19 02:05:16;;;;;;;20.60;18.50;;;;;;;13.42;80.88;98701.23;225664;1279;22533;-69
2023/06/19 02:10:18;;;;;;;24.90;18.50;;;;;;;13.39;80.96;98706.19;225938;1280;22544;-68
2023/06/19 02:15:21;;;;;;;24.50;18.70;;;;;;;13.37;81.16;98705.21;225569;1280;22542;-69
2023/06/19 02:20:24;;;;;;;21.60;18.10;;;;;;;13.37;81.17;98705.54;225781;1278;22554;-68
2023/06/19 02:25:30;;;;;;;18.30;16.40;;;;;;;13.34;81.26;98705.20;225927;1263;22555;-68
2023/06/19 02:30:32;;;;;;;19.90;17.80;;;;;;;13.31;81.27;98705.92;225790;1279;23132;-68
2023/06/19 02:35:38;;;;;;;21.70;18.40;;;;;;;13.26;81.32;98704.34;225787;1276;22551;-68
2023/06/19 02:40:50;;;;;;;20.80;18.70;;;;;;;13.21;81.35;98706.55;225661;1279;22544;-69
2023/06/19 02:45:52;;;;;;;21.10;18.90;;;;;;;13.19;81.35;98710.48;225936;1263;22565;-68
2023/06/19 02:50:54;;;;;;;22.60;19.80;;;;;;;13.17;81.47;98715.05;225923;1276;22560;-69
2023/06/19 02:56:03;;;;;;;23.30;19.50;;;;;;;13.18;81.72;98720.23;225814;1277;22543;-69
2023/06/19 03:01:10;;;;;;;22.30;19.90;;;;;;;13.22;81.81;98718.66;225890;1280;22615;-72
2023/06/19 03:06:17;;;;;;;22.20;18.00;;;;;;;13.26;81.83;98717.03;225927;1277;22540;-68
2023/06/19 03:11:20;;;;;;;20.50;18.30;;;;;;;13.31;81.77;98718.38;225824;1275;22541;-68
2023/06/19 03:16:22;;;;;;;20.10;18.00;;;;;;;13.37;81.73;98723.84;225745;1278;22593;-68
2023/06/19 03:21:35;;;;;;;20.10;16.70;;;;;;;13.54;81.49;98719.14;225735;1278;24224;-68
2023/06/19 03:26:37;;;;;;;19.50;17.40;;;;;;;13.90;81.45;98720.13;225918;1280;22541;-68
2023/06/19 03:31:40;;;;;;;17.30;15.50;;;;;;;14.30;80.97;98714.70;225872;1279;23278;-68
2023/06/19 03:36:43;;;;;;;17.70;15.80;;;;;;;14.76;80.73;98721.25;225858;1265;22666;-68
2023/06/19 03:41:45;;;;;;;17.30;15.50;;;;;;;15.27;80.44;98719.79;225781;1278;22533;-69
2023/06/19 03:46:50;;;;;;;19.80;14.80;;;;;;;15.72;79.33;98722.74;225882;1276;22536;-69
2023/06/19 03:51:55;;;;;;;17.40;14.40;;;;;;;16.19;79.01;98731.07;225839;1277;25274;-68
2023/06/19 03:56:58;;;;;;;17.80;15.30;;;;;;;16.63;78.38;98722.43;225862;1277;22539;-69
2023/06/19 04:02:01;;;;;;;20.60;15.30;;;;;;;17.01;77.70;98722.86;225854;1272;22574;-69
2023/06/19 04:07:06;;;;;;;17.90;15.90;;;;;;;17.37;77.34;98725.98;225611;1279;22535;-71
2023/06/19 04:12:09;;;;;;;21.00;15.40;;;;;;;17.59;77.13;98731.02;225654;1279;22570;-70
2023/06/19 04:17:18;;;;;;;17.00;14.80;;;;;;;17.70;76.19;98730.46;225721;1279;22533;-68
2023/06/19 04:22:24;;;;;;;16.50;14.60;;;;;;;17.63;75.19;98733.90;225664;1278;22544;-68
2023/06/19 04:27:26;;;;;;;17.80;15.60;;;;;;;17.42;74.32;98733.05;225814;1276;22579;-69
2023/06/19 04:32:28;;;;;;;17.70;15.90;;;;;;;17.22;74.76;98729.08;225735;1278;24257;-69
2023/06/19 04:37:30;;;;;;;18.00;15.50;;;;;;;17.14;75.26;98725.69;225723;1278;22551;-69
2023/06/19 04:42:32;;;;;;;16.90;15.10;;;;;;;17.07;75.35;98730.98;225846;1273;22547;-69
2023/06/19 04:47:35;;;;;;;24.90;19.60;;;;;;;17.00;75.51;98736.23;225913;1276;22543;-68
2023/06/19 04:52:54;;;;;;;21.10;16.90;;;;;;;17.06;76.39;98738.14;225850;1278;22536;-68
2023/06/19 04:57:56;;;;;;;21.20;17.30;;;;;;;17.21;76.54;98734.91;225871;1276;22573;-70
2023/06/19 05:03:00;;;;;;;13.60;11.40;;;;;;;17.35;76.23;98734.32;225777;1275;22901;-69
2023/06/19 05:08:02;;;;;;;15.50;11.40;;;;;;;17.37;75.17;98741.25;225769;1275;22537;-69
2023/06/19 05:13:04;;;;;;;12.10;10.80;;;;;;;17.42;75.31;98740.58;225869;1276;22546;-68
2023/06/19 05:18:06;;;;;;;13.00;11.70;;;;;;;17.54;75.01;98741.85;225824;1270;22568;-69
2023/06/19 05:23:08;;;;;;;12.20;10.80;;;;;;;17.67;74.95;98738.69;225936;1262;22634;-69
2023/06/19 05:28:11;;;;;;;13.40;11.60;;;;;;;17.75;74.59;98739.95;225600;1279;22954;-68
2023/06/19 05:33:23;;;;;;;14.00;12.10;;;;;;;17.88;74.83;98741.71;225745;1278;22533;-69
2023/06/19 05:38:28;;;;;;;14.30;11.70;;;;;;;18.10;74.82;98749.27;225894;1274;26045;-69
2023/06/19 05:43:31;;;;;;;14.50;12.10;;;;;;;18.23;74.06;98749.84;225513;1273;22547;-70
2023/06/19 05:48:34;;;;;;;13.80;12.30;;;;;;;18.37;74.28;98760.43;225652;1280;22567;-68
2023/06/19 05:53:36;;;;;;;12.50;11.20;;;;;;;18.64;74.38;98755.61;225637;1268;22530;-70
2023/06/19 05:58:41;;;;;;;18.30;12.80;;;;;;;18.84;73.82;98754.48;225712;1257;23189;-70
2023/06/19 06:10:09;;;;;;;17.00;12.50;;;;;;;19.24;73.32;98768.84;219788;1279;950090;-72
2023/06/19 06:15:21;;;;;;;17.20;11.80;;;;;;;19.40;73.16;98763.89;221499;1279;140572;-69
2023/06/19 06:20:23;;;;;;;14.00;11.10;;;;;;;19.62;73.02;98771.43;221790;1295;138866;-70
2023/06/19 06:25:25;;;;;;;12.70;10.90;;;;;;;19.88;72.99;98771.46;221507;1279;138854;-70
2023/06/19 06:30:28;;;;;;;13.10;10.20;;;;;;;20.18;72.35;98771.66;221516;1289;139076;-70
2023/06/19 06:35:30;;;;;;;12.40;10.20;;;;;;;20.35;71.27;98775.42;221374;1292;138926;-71
2023/06/19 06:40:32;;;;;;;11.40;9.70;;;;;;;20.51;70.93;98783.50;221360;1288;22552;-71
2023/06/19 06:45:37;;;;;;;11.40;9.10;;;;;;;20.69;70.51;98784.08;221438;1285;138466;-70
2023/06/19 06:50:41;;;;;;;14.20;10.50;;;;;;;20.90;70.25;98792.28;221429;1289;139898;-71
2023/06/19 06:55:46;;;;;;;12.20;9.90;;;;;;;21.06;69.42;98791.45;221482;1289;138858;-71
2023/06/19 07:00:48;;;;;;;14.10;9.10;;;;;;;21.23;69.04;98799.52;221239;1285;138870;-70
2023/06/19 07:05:50;;;;;;;10.10;9.00;;;;;;;21.44;68.57;98800.30;221316;1288;138057;-70
2023/06/19 07:10:52;;;;;;;11.10;8.50;;;;;;;21.65;68.00;98801.98;221716;1294;22605;-70
2023/06/19 07:15:54;;;;;;;9.10;8.20;;;;;;;21.81;67.18;98807.58;221586;1289;137952;-71
2023/06/19 07:20:56;;;;;;;11.40;9.80;;;;;;;21.96;66.65;98806.66;221637;1295;137911;-70
2023/06/19 07:25:59;;;;;;;10.50;9.00;;;;;;;22.14;66.60;98800.20;221299;1295;138624;-71
2023/06/19 07:31:01;;;;;;;11.00;9.70;;;;;;;22.29;65.50;98807.73;221339;1301;138019;-71
2023/06/19 07:36:03;;;;;;;16.60;10.30;;;;;;;22.44;65.73;98807.16;221375;1289;138293;-71
2023/06/19 07:41:07;;;;;;;14.00;10.50;;;;;;;22.68;65.32;98814.23;221528;1288;22642;-71
2023/06/19 07:46:09;;;;;;;9.20;8.10;;;;;;;22.90;64.83;98813.72;221692;1289;138054;-70
2023/06/19 07:51:12;;;;;;;9.40;7.30;;;;;;;23.07;63.53;98811.95;221188;1296;137756;-72
2023/06/19 07:56:14;;;;;;;9.70;8.40;;;;;;;23.33;63.33;98811.10;221349;1295;137902;-73
2023/06/19 08:01:21;;;;;;;8.90;7.30;;;;;;;23.52;62.68;98807.05;221485;1303;137857;-74
2023/06/19 08:06:23;;;;;;;8.10;7.30;;;;;;;23.70;61.73;98802.99;221574;1298;137814;-71
2023/06/19 08:11:31;;;;;;;7.60;6.90;;;;;;;23.94;61.27;98807.55;221752;1283;138203;-72
2023/06/19 08:16:33;;;;;;;7.30;6.70;;;;;;;24.22;60.54;98806.82;221714;1301;22558;-71
2023/06/19 08:21:36;;;;;;;6.30;5.80;;;;;;;24.48;59.70;98809.52;221634;1302;137475;-71
2023/06/19 08:26:38;;;;;;;7.30;6.60;;;;;;;24.70;58.96;98806.01;221585;1302;137955;-71
2023/06/19 08:31:40;;;;;;;7.00;6.40;;;;;;;24.81;58.10;98802.73;221723;1301;138043;-72
2023/06/19 08:36:42;;;;;;;5.60;5.20;;;;;;;24.98;57.72;98805.36;221613;1298;138138;-72
2023/06/19 08:41:47;;;;;;;6.10;5.70;;;;;;;25.29;56.68;98805.83;221704;1298;138010;-72
2023/06/19 08:46:49;;;;;;;7.20;6.70;;;;;;;25.72;56.20;98800.48;221599;1301;22649;-72
2023/06/19 08:51:51;;;;;;;6.90;6.40;;;;;;;25.93;54.96;98794.95;221736;1291;137862;-71
2023/06/19 08:56:54;;;;;;;7.20;6.60;;;;;;;26.08;54.63;98791.43;221661;1285;137765;-72
2023/06/19 09:01:56;;;;;;;6.60;6.10;;;;;;;26.34;54.60;98790.63;221670;1295;138463;-73
2023/06/19 09:07:08;;;;;;;7.20;6.50;;;;;;;26.66;54.33;98788.70;221563;1298;138007;-71
2023/06/19 09:12:22;;;;;;;13.10;6.70;;;;;;;26.78;53.61;98784.48;221688;1295;137854;-72
2023/06/19 09:17:42;;;;;;;7.40;6.80;;;;;;;26.86;53.25;98783.43;221631;1292;138129;-73
2023/06/19 09:22:58;;;;;;;7.30;6.70;;;;;;;26.92;52.78;98780.19;221947;1298;22570;-73
2023/06/19 09:28:00;;;;;;;7.30;6.70;;;;;;;26.93;52.52;98780.30;221622;1298;137533;-73
2023/06/19 09:33:11;;;;;;;7.30;6.60;;;;;;;27.01;52.38;98777.19;221590;1279;137687;-73
2023/06/19 09:38:15;;;;;;;7.90;7.20;;;;;;;27.11;51.88;98775.96;221698;1296;137904;-72
2023/06/19 09:43:42;;;;;;;7.30;6.70;;;;;;;27.19;51.67;98776.79;221623;1295;137805;-73
2023/06/19 09:48:46;;;;;;;7.20;6.60;;;;;;;27.23;51.52;98771.10;221995;1292;138271;-72
2023/06/19 09:53:49;;;;;;;7.30;6.70;;;;;;;27.38;51.48;98768.55;221648;1295;138149;-72
2023/06/19 09:58:54;;;;;;;7.60;6.90;;;;;;;27.48;51.04;98768.87;221938;1286;22932;-72
2023/06/19 10:04:05;;;;;;;7.20;6.60;;;;;;;27.65;51.13;98767.98;221708;1301;138664;-73
2023/06/19 10:09:09;;;;;;;7.60;7.00;;;;;;;27.75;50.47;98764.89;221426;1295;137780;-71
2023/06/19 10:14:12;;;;;;;7.20;6.60;;;;;;;27.76;50.17;98763.71;221735;1295;137866;-72
2023/06/19 10:19:16;;;;;;;7.90;6.80;;;;;;;27.72;49.15;98760.38;221591;1295;137833;-72
2023/06/19 10:24:19;;;;;;;7.90;7.20;;;;;;;27.55;48.96;98758.06;221366;1287;137967;-73
2023/06/19 10:29:22;;;;;;;7.30;6.80;;;;;;;27.57;49.13;98760.20;224184;1292;24458;-74
2023/06/19 10:34:34;;;;;;;6.80;6.30;;;;;;;27.66;48.94;98758.85;222738;1301;24279;-73
2023/06/19 10:39:36;;;;;;;7.10;6.40;;;;;;;27.75;48.79;98753.64;221304;1296;137541;-72
2023/06/19 10:44:38;;;;;;;7.90;7.30;;;;;;;27.81;48.28;98754.40;221725;1301;137935;-73
2023/06/19 10:49:41;;;;;;;7.10;6.60;;;;;;;27.84;48.67;98756.17;221547;1279;137887;-72
2023/06/19 10:54:46;;;;;;;7.40;6.80;;;;;;;27.98;48.71;98760.34;221702;1292;137971;-73
2023/06/19 10:59:51;;;;;;;7.50;6.50;;;;;;;28.13;48.63;98758.42;221524;1302;137867;-72
2023/06/19 11:04:54;;;;;;;6.50;6.00;;;;;;;28.22;47.65;98757.23;221801;1301;22582;-72
2023/06/19 11:09:56;;;;;;;6.50;6.00;;;;;;;28.20;46.56;98754.92;221738;1301;138497;-73
2023/06/19 11:15:05;;;;;;;6.70;6.10;;;;;;;28.06;46.43;98750.06;221740;1295;137874;-73
2023/06/19 11:20:16;;;;;;;7.20;6.60;;;;;;;28.08;46.42;98751.80;221919;1285;138184;-73
2023/06/19 11:25:20;;;;;;;6.70;6.20;;;;;;;28.00;46.16;98752.14;221856;1284;137857;-72
2023/06/19 11:30:31;;;;;;;7.10;6.40;;;;;;;27.99;46.86;98744.63;221766;1295;137799;-72
2023/06/19 11:35:36;;;;;;;6.30;5.70;;;;;;;28.11;46.62;98740.74;221757;1279;137855;-72
2023/06/19 11:40:40;;;;;;;6.20;5.70;;;;;;;28.17;45.98;98737.26;221557;1285;23494;-72
2023/06/19 11:45:49;;;;;;;6.40;5.90;;;;;;;28.14;45.53;98736.61;221460;1285;137599;-72
2023/06/19 11:50:54;;;;;;;6.80;6.20;;;;;;;28.18;45.63;98732.94;221433;1285;137620;-72
2023/06/19 11:56:03;;;;;;;6.40;6.00;;;;;;;28.19;45.51;98731.23;221368;1282;137957;-72
2023/06/19 12:01:05;;;;;;;5.80;5.40;;;;;;;28.25;45.17;98725.84;221371;1285;138020;-75
2023/06/19 12:06:11;;;;;;;5.70;5.20;;;;;;;28.37;44.89;98725.09;221198;1285;137826;-73
2023/06/19 12:11:13;;;;;;;6.00;5.50;;;;;;;28.44;44.26;98720.65;221559;1285;22554;-73
2023/06/19 12:16:15;;;;;;;5.90;5.40;;;;;;;28.42;44.35;98717.42;221567;1295;137561;-73
2023/06/19 12:21:17;;;;;;;6.40;5.80;;;;;;;28.40;44.09;98713.38;221318;1301;137752;-76
2023/06/19 12:26:36;;;;;;;6.10;5.70;;;;;;;28.49;44.35;98714.77;221541;1285;137904;-73
2023/06/19 12:31:39;;;;;;;6.80;6.30;;;;;;;28.64;44.32;98710.66;221629;1300;137853;-72
2023/06/19 12:36:42;;;;;;;6.60;6.00;;;;;;;28.72;44.24;98705.75;221513;1298;138193;-72
2023/06/19 12:41:44;;;;;;;6.00;5.60;;;;;;;28.79;43.79;98706.52;221328;1289;137963;-75
2023/06/19 12:46:46;;;;;;;6.40;5.80;;;;;;;28.85;43.63;98700.40;221332;1296;22600;-72
2023/06/19 12:51:51;;;;;;;6.40;6.00;;;;;;;28.75;42.96;98700.85;221411;1279;138298;-72
2023/06/19 12:56:56;;;;;;;6.20;5.70;;;;;;;28.64;43.13;98696.78;221589;1298;138206;-72
2023/06/19 13:01:58;;;;;;;6.80;6.20;;;;;;;28.51;42.70;98697.23;221766;1296;137931;-72
2023/06/19 13:07:10;;;;;;;6.00;5.60;;;;;;;28.32;42.87;98699.89;221672;1301;137789;-72
2023/06/19 13:12:15;;;;;;;6.10;5.60;;;;;;;28.41;43.63;98690.76;221705;1302;137992;-73
2023/06/19 13:17:17;;;;;;;6.30;5.80;;;;;;;28.58;43.70;98687.17;221712;1298;24438;-72
2023/06/19 13:22:19;;;;;;;6.10;5.70;;;;;;;28.64;43.05;98689.18;221666;1289;137405;-73
2023/06/19 13:27:27;;;;;;;6.10;5.60;;;;;;;28.66;43.07;98685.98;221686;1295;137721;-72
2023/06/19 13:32:29;;;;;;;6.00;5.50;;;;;;;28.77;43.01;98680.19;221621;1289;137796;-73
2023/06/19 13:37:34;;;;;;;5.60;5.20;;;;;;;28.86;42.87;98675.02;221101;1301;138039;-73
2023/06/19 13:42:36;;;;;;;6.50;5.90;;;;;;;28.91;42.09;98672.73;220990;1298;140205;-74
2023/06/19 13:47:39;;;;;;;6.10;5.50;;;;;;;28.88;41.96;98674.60;221441;1298;137875;-73
2023/06/19 13:52:41;;;;;;;5.60;5.20;;;;;;;28.88;41.98;98669.70;221748;1285;22571;-72
2023/06/19 13:57:43;;;;;;;5.90;5.40;;;;;;;28.93;41.81;98671.27;221372;1282;137516;-72
2023/06/19 14:02:45;;;;;;;5.80;5.30;;;;;;;28.90;41.64;98667.98;221403;1288;24293;-74
2023/06/19 14:07:47;;;;;;;5.40;5.00;;;;;;;28.91;41.46;98670.77;221647;1302;22561;-74
2023/06/19 14:12:50;;;;;;;5.30;4.90;;;;;;;29.02;41.12;98671.25;221699;1302;22607;-75
2023/06/19 14:17:55;;;;;;;5.60;5.20;;;;;;;29.09;41.06;98665.14;221545;1299;22686;-74
2023/06/19 14:22:57;;;;;;;5.50;5.10;;;;;;;29.12;41.01;98663.74;221731;1295;22564;-74
2023/06/19 14:28:02;;;;;;;5.40;5.00;;;;;;;29.16;40.45;98666.38;221674;1302;22588;-74
2023/06/19 14:33:04;;;;;;;5.60;5.00;;;;;;;29.18;40.47;98658.91;222075;1301;22579;-75
2023/06/19 14:38:06;;;;;;;5.60;5.10;;;;;;;29.19;40.09;98656.33;222103;1298;24279;-74
2023/06/19 14:43:09;;;;;;;5.40;4.90;;;;;;;29.18;39.83;98659.84;222168;1303;22588;-75
2023/06/19 14:48:11;;;;;;;5.20;4.80;;;;;;;29.16;39.99;98662.17;222185;1301;25493;-74
2023/06/19 14:53:14;;;;;;;5.00;4.70;;;;;;;29.06;40.11;98662.98;222214;1302;22566;-73
2023/06/19 14:58:16;;;;;;;4.90;4.50;;;;;;;29.06;40.52;98661.52;222004;1301;22565;-74
2023/06/19 15:03:18;;;;;;;5.80;5.30;;;;;;;29.21;40.74;98657.45;222262;1295;25497;-74
2023/06/19 15:08:21;;;;;;;6.90;6.30;;;;;;;29.33;40.76;98661.40;222321;1300;22563;-74
2023/06/19 15:13:33;;;;;;;5.90;5.40;;;;;;;29.43;40.03;98656.71;222372;1302;22584;-74
2023/06/19 15:18:35;;;;;;;5.10;4.80;;;;;;;29.45;39.66;98660.83;222311;1298;25268;-74
2023/06/19 15:23:46;;;;;;;5.20;4.80;;;;;;;29.36;39.55;98654.69;222195;1301;22588;-74
2023/06/19 15:28:48;;;;;;;5.40;5.00;;;;;;;29.24;39.63;98654.84;222247;1303;22569;-74
2023/06/19 15:33:50;;;;;;;4.90;4.50;;;;;;;29.12;39.83;98649.54;222317;1301;22565;-73
2023/06/19 15:38:52;;;;;;;5.60;5.00;;;;;;;29.00;39.58;98650.34;222320;1295;22565;-73
2023/06/19 15:43:54;;;;;;;5.00;4.70;;;;;;;28.92;39.72;98650.89;222267;1298;22588;-72
2023/06/19 15:48:57;;;;;;;5.30;4.90;;;;;;;28.84;39.99;98652.94;222263;1295;22562;-73
2023/06/19 15:54:00;;;;;;;5.70;5.30;;;;;;;28.88;39.88;98648.38;222143;1301;22561;-73
2023/06/19 15:59:02;;;;;;;4.90;4.50;;;;;;;28.87;40.13;98648.02;222145;1303;25459;-73
2023/06/19 16:04:04;;;;;;;5.20;4.80;;;;;;;28.79;40.13;98646.52;222173;1301;22565;-73
2023/06/19 16:09:09;;;;;;;5.50;5.00;;;;;;;28.76;40.48;98649.63;222115;1302;25322;-74
2023/06/19 16:14:15;;;;;;;5.90;5.40;;;;;;;28.71;40.74;98644.46;222204;1299;25313;-74
2023/06/19 16:19:20;;;;;;;5.70;5.20;;;;;;;28.71;40.95;98645.45;222088;1301;22582;-74
2023/06/19 16:24:23;;;;;;;5.90;5.40;;;;;;;28.73;40.60;98646.22;222153;1302;22701;-74
2023/06/19 16:29:25;;;;;;;6.10;5.50;;;;;;;28.72;40.66;98643.19;222002;1303;22561;-73
2023/06/19 16:34:26;;;;;;;5.80;5.30;;;;;;;28.68;40.50;98649.17;222174;1301;23318;-74
2023/06/19 16:39:29;;;;;;;5.40;4.90;;;;;;;28.66;40.41;98646.70;222075;1298;22568;-74
2023/06/19 16:44:34;;;;;;;5.60;5.10;;;;;;;28.54;40.35;98647.45;222133;1299;22584;-74
2023/06/19 16:49:37;;;;;;;9.00;7.20;;;;;;;28.45;40.79;98648.00;222147;1302;25800;-74
2023/06/19 16:54:48;;;;;;;6.10;5.60;;;;;;;28.41;41.31;98647.80;222160;1298;22640;-73
2023/06/19 16:59:50;;;;;;;6.50;5.80;;;;;;;28.32;40.75;98643.98;221897;1301;22576;-72
2023/06/19 17:05:00;;;;;;;6.20;5.70;;;;;;;28.22;41.18;98642.64;222197;1302;22581;-74
2023/06/19 17:10:02;;;;;;;5.80;5.40;;;;;;;28.30;41.53;98641.48;222227;1301;22614;-73
2023/06/19 17:15:13;;;;;;;7.00;6.10;;;;;;;28.84;41.85;98641.86;222331;1302;22759;-73
2023/06/19 17:20:18;;;;;;;6.20;5.70;;;;;;;29.40;41.56;98638.40;222083;1302;22599;-74
2023/06/19 17:25:28;;;;;;;5.70;5.30;;;;;;;29.81;41.19;98635.45;222261;1299;22583;-74
2023/06/19 17:30:31;;;;;;;5.80;5.30;;;;;;;30.31;41.06;98630.82;222376;1298;22628;-73
2023/06/19 17:35:33;;;;;;;7.60;6.90;;;;;;;30.37;40.67;98630.21;222153;1301;22571;-74
2023/06/19 17:40:35;;;;;;;6.70;6.20;;;;;;;30.12;40.19;98634.48;222185;1301;24978;-74
2023/06/19 17:45:37;;;;;;;5.80;5.10;;;;;;;29.66;40.30;98635.38;222269;1301;22580;-74
2023/06/19 17:50:39;;;;;;;7.40;5.70;;;;;;;28.91;40.42;98637.34;222328;1296;22579;-75
2023/06/19 17:55:43;;;;;;;6.30;5.90;;;;;;;28.24;41.13;98644.17;222365;1301;22581;-73
2023/06/19 18:00:48;;;;;;;7.10;6.50;;;;;;;27.78;42.01;98644.34;222237;1301;22565;-73
2023/06/19 18:05:50;;;;;;;7.20;6.60;;;;;;;27.37;42.81;98637.60;222033;1302;22556;-74
2023/06/19 18:10:57;;;;;;;7.30;6.60;;;;;;;27.02;43.48;98636.18;222113;1302;24634;-73
2023/06/19 18:15:59;;;;;;;7.70;6.80;;;;;;;26.69;44.02;98633.45;222117;1301;90554;-74
2023/06/19 18:21:16;;;;;;;7.60;7.00;;;;;;;26.35;44.89;98631.42;222284;1298;22674;-73
2023/06/19 18:26:18;;;;;;;10.10;7.20;;;;;;;26.03;45.65;98633.49;222205;1302;22678;-74
2023/06/19 18:31:24;;;;;;;7.90;7.10;;;;;;;25.68;46.64;98634.70;222293;1299;22618;-72
2023/06/19 18:36:26;;;;;;;8.10;7.00;;;;;;;25.33;47.64;98628.89;222124;1302;22568;-73
2023/06/19 18:41:30;;;;;;;10.10;7.10;;;;;;;24.97;48.04;98636.82;222060;1302;22581;-73
2023/06/19 18:46:32;;;;;;;7.80;7.10;;;;;;;24.63;48.39;98635.76;222206;1301;22591;-74
2023/06/19 18:51:40;;;;;;;8.10;7.30;;;;;;;24.31;48.78;98648.05;222294;1299;21797;-73
2023/06/19 18:56:43;;;;;;;7.80;7.10;;;;;;;24.01;49.15;98645.44;222159;1301;22568;-73
2023/06/19 19:01:51;;;;;;;8.70;7.20;;;;;;;23.72;49.48;98652.02;222257;1302;22606;-73
2023/06/19 19:07:06;;;;;;;7.90;7.20;;;;;;;23.45;49.84;98659.33;222064;1302;22569;-73
2023/06/19 19:12:09;;;;;;;8.50;7.60;;;;;;;23.19;50.35;98664.40;222141;1302;22569;-73
2023/06/19 19:17:12;;;;;;;8.70;7.40;;;;;;;22.94;50.94;98680.33;222198;1302;22583;-73
2023/06/19 19:22:36;;;;;;;9.70;8.40;;;;;;;22.69;51.44;98680.30;222234;1302;22669;-73
2023/06/19 19:27:43;;;;;;;9.80;6.90;;;;;;;22.46;52.08;98687.66;222213;1299;22709;-73
2023/06/19 19:32:46;;;;;;;8.10;6.80;;;;;;;22.26;52.66;98690.69;222120;1298;22579;-73
2023/06/19 19:37:51;;;;;;;8.20;7.50;;;;;;;22.06;53.23;98695.63;222293;1298;22583;-73
2023/06/19 19:42:56;;;;;;;8.20;7.20;;;;;;;21.88;53.55;98700.50;222258;1299;22582;-73
2023/06/19 19:48:01;;;;;;;11.40;8.30;;;;;;;21.67;54.02;98705.23;222290;1302;22583;-73
2023/06/19 19:53:16;;;;;;;9.10;7.70;;;;;;;21.49;54.52;98702.73;222271;1302;22783;-73
2023/06/19 19:58:18;;;;;;;9.30;7.80;;;;;;;21.31;55.13;98706.80;222154;1301;22576;-73
2023/06/19 20:03:21;;;;;;;7.90;7.10;;;;;;;21.15;56.26;98716.78;222191;1301;22562;-74
2023/06/19 20:08:31;;;;;;;8.30;7.60;;;;;;;20.98;56.90;98714.14;222229;1301;22556;-73
2023/06/19 20:13:45;;;;;;;9.50;8.50;;;;;;;20.79;57.47;98718.00;222135;1300;22590;-74
2023/06/19 20:19:07;;;;;;;10.20;9.20;;;;;;;20.61;58.16;98719.23;222199;1298;22630;-74
2023/06/19 20:24:09;;;;;;;11.50;10.40;;;;;;;20.42;59.02;98721.40;222152;1298;24345;-73
2023/06/19 20:29:13;;;;;;;10.90;9.80;;;;;;;20.25;59.66;98723.29;222108;1300;24312;-73
2023/06/19 20:34:27;;;;;;;11.80;10.00;;;;;;;20.09;59.91;98725.05;222043;1282;22665;-73
2023/06/19 20:39:29;;;;;;;11.90;10.30;;;;;;;19.94;60.13;98729.15;222142;1298;23195;-73
2023/06/19 20:44:34;;;;;;;10.30;9.20;;;;;;;19.83;60.63;98732.23;222168;1299;22564;-73
2023/06/19 20:49:37;;;;;;;11.80;9.80;;;;;;;19.71;61.08;98736.33;222212;1302;22575;-73
2023/06/19 20:54:39;;;;;;;11.50;10.20;;;;;;;19.60;61.48;98739.80;222128;1298;22569;-73
2023/06/19 20:59:42;;;;;;;12.30;11.00;;;;;;;19.48;62.00;98744.45;221957;1301;22584;-73
2023/06/19 21:04:44;;;;;;;13.40;11.90;;;;;;;19.35;62.38;98743.23;222201;1299;22571;-73
2023/06/19 21:09:49;;;;;;;12.10;10.90;;;;;;;19.25;62.63;98738.11;222195;1298;22607;-73
2023/06/19 21:15:04;;;;;;;13.20;11.30;;;;;;;19.17;63.30;98741.02;222102;1302;22569;-73
2023/06/19 21:20:29;;;;;;;14.70;9.90;;;;;;;19.09;63.61;98742.66;222105;1301;22772;-73
2023/06/19 21:25:35;;;;;;;16.90;10.60;;;;;;;19.00;63.46;98740.77;222141;1298;22620;-73
2023/06/19 21:30:37;;;;;;;12.60;10.80;;;;;;;18.87;63.20;98733.85;222209;1280;22565;-73
2023/06/19 21:35:40;;;;;;;14.10;11.00;;;;;;;18.75;63.55;98736.60;222196;1299;22686;-73
2023/06/19 21:40:45;;;;;;;15.40;10.60;;;;;;;18.65;63.72;98743.23;221968;1301;23690;-73
2023/06/19 21:45:50;;;;;;;14.60;10.40;;;;;;;18.59;63.74;98748.40;222153;1298;22571;-73
2023/06/19 21:50:53;;;;;;;13.70;11.00;;;;;;;18.57;63.58;98744.21;222166;1295;22653;-73
2023/06/19 21:56:15;;;;;;;13.10;10.10;;;;;;;18.58;63.72;98742.90;222172;1302;25444;-73
2023/06/19 22:01:39;;;;;;;11.00;9.60;;;;;;;18.59;63.49;98743.38;222277;1298;25130;-73
2023/06/19 22:06:47;;;;;;;11.10;9.80;;;;;;;18.62;63.56;98741.55;222256;1295;22678;-74
2023/06/19 22:11:49;;;;;;;16.80;11.10;;;;;;;18.62;63.53;98744.61;222142;1298;22606;-73
2023/06/19 22:16:54;;;;;;;12.30;10.30;;;;;;;18.61;63.73;98738.07;221990;1298;22565;-73
2023/06/19 22:21:59;;;;;;;13.30;10.70;;;;;;;18.60;63.86;98741.05;222254;1298;23323;-73
2023/06/19 22:27:17;;;;;;;17.00;11.50;;;;;;;18.60;64.30;98742.42;222254;1302;22583;-73
2023/06/19 22:32:25;;;;;;;15.40;10.50;;;;;;;18.57;64.27;98747.39;222141;1302;22580;-73
2023/06/19 22:37:53;;;;;;;14.60;10.30;;;;;;;18.55;64.35;98743.29;222211;1302;25070;-73
2023/06/19 22:42:57;;;;;;;13.90;10.60;;;;;;;18.52;64.49;98738.26;222235;1301;22565;-74
2023/06/19 22:48:00;;;;;;;17.80;10.40;;;;;;;18.51;64.40;98740.95;222206;1301;24301;-73
2023/06/19 22:53:03;;;;;;;18.40;11.00;;;;;;;18.50;64.19;98738.64;222013;1302;22711;-74
2023/06/19 22:58:19;;;;;;;16.10;10.80;;;;;;;18.48;64.25;98738.83;222255;1298;22789;-73
2023/06/19 23:03:24;;;;;;;15.20;10.00;;;;;;;18.47;64.37;98737.50;222229;1295;22569;-73
2023/06/19 23:08:49;;;;;;;17.90;11.10;;;;;;;18.45;64.57;98739.61;222255;1301;22560;-73
2023/06/19 23:13:59;;;;;;;14.70;10.50;;;;;;;18.40;64.59;98737.16;222352;1302;22575;-73
2023/06/19 23:19:16;;;;;;;14.00;10.80;;;;;;;18.35;64.94;98737.61;222335;1298;22624;-73
2023/06/19 23:25:01;;;;;;;17.10;11.50;;;;;;;18.28;65.14;98745.55;222290;1302;22573;-73
2023/06/19 23:30:31;;;;;;;18.40;13.00;;;;;;;18.17;66.04;98743.89;222243;1302;22587;-73